Time;durP1;ratioP1;P1;durP2;ratioP2;P2;SDS_P1;SDS_P2;PMS_P1;PMS_P2;Temp;Humidity;BMP_temperature;BMP_pressure;BME280_temperature;BME280_humidity;BME280_pressure;Samples;Min_cycle;Max_cycle;Signal;HPM_P1;HPM_P2
2022/07/07 00:01:08;;;;;;;12.25;6.85;;;;;;;;;;5258438;28;20037;-82
2022/07/07 00:03:40;;;;;;;9.85;6.97;;;;;;;;;;5272798;28;20055;-82
2022/07/07 00:06:11;;;;;;;11.77;6.90;;;;;;;;;;5272871;28;20086;-82
2022/07/07 00:08:42;;;;;;;8.68;6.88;;;;;;;;;;5258689;28;20289;-82
2022/07/07 00:11:14;;;;;;;7.93;6.13;;;;;;;;;;5258325;28;20036;-82
2022/07/07 00:13:45;;;;;;;7.40;6.60;;;;;;;;;;5254449;28;20035;-82
2022/07/07 00:16:17;;;;;;;9.57;6.27;;;;;;;;;;5257853;28;20032;-82
2022/07/07 00:18:48;;;;;;;9.35;6.03;;;;;;;;;;5256014;28;20285;-82
2022/07/07 00:21:20;;;;;;;8.65;6.05;;;;;;;;;;5273473;28;20052;-82
2022/07/07 00:23:51;;;;;;;6.50;5.50;;;;;;;;;;5272963;28;20060;-82
2022/07/07 00:26:22;;;;;;;8.83;6.23;;;;;;;;;;5274937;28;20338;-82
2022/07/07 00:28:53;;;;;;;6.43;5.45;;;;;;;;;;5277961;28;20922;-82
2022/07/07 00:31:25;;;;;;;9.17;5.93;;;;;;;;;;5273720;28;20132;-82
2022/07/07 00:33:56;;;;;;;7.70;5.50;;;;;;;;;;5278383;28;20730;-83
2022/07/07 00:36:27;;;;;;;7.50;5.80;;;;;;;;;;5287440;28;20033;-82
2022/07/07 00:38:59;;;;;;;7.17;5.37;;;;;;;;;;5271475;28;20694;-81
2022/07/07 00:41:30;;;;;;;8.10;6.28;;;;;;;;;;5288543;28;20326;-80
2022/07/07 00:44:01;;;;;;;6.30;5.50;;;;;;;;;;5287433;28;20040;-80
2022/07/07 00:46:41;;;;;;;5.30;4.80;;;;;;;;;;5287600;28;20076;-82
2022/07/07 00:49:13;;;;;;;6.85;5.22;;;;;;;;;;5278378;28;20267;-82
2022/07/07 00:51:44;;;;;;;5.97;5.03;;;;;;;;;;5274118;28;20033;-82
2022/07/07 00:54:16;;;;;;;8.27;5.50;;;;;;;;;;5274036;28;20041;-82
2022/07/07 00:56:47;;;;;;;5.78;4.82;;;;;;;;;;5274882;28;20754;-84
2022/07/07 00:59:18;;;;;;;5.25;4.75;;;;;;;;;;5275294;28;20035;-83
2022/07/07 01:01:50;;;;;;;6.75;5.00;;;;;;;;;;5276910;28;20132;-85
2022/07/07 01:04:21;;;;;;;9.67;5.07;;;;;;;;;;5277100;28;20035;-85
2022/07/07 01:06:52;;;;;;;9.27;5.53;;;;;;;;;;5278572;28;20107;-82
2022/07/07 01:09:33;;;;;;;6.80;4.30;;;;;;;;;;5278180;28;20485;-82
2022/07/07 01:12:05;;;;;;;5.85;5.10;;;;;;;;;;5262946;28;20048;-84
2022/07/07 01:14:38;;;;;;;7.57;4.53;;;;;;;;;;5263480;28;20458;-84
2022/07/07 01:17:09;;;;;;;7.72;5.00;;;;;;;;;;5277092;28;20097;-84
2022/07/07 01:19:40;;;;;;;7.40;4.80;;;;;;;;;;5282086;28;20027;-84
2022/07/07 01:22:15;;;;;;;6.30;5.00;;;;;;;;;;5283121;28;20377;-84
2022/07/07 01:24:47;;;;;;;8.80;4.97;;;;;;;;;;5278194;28;20044;-84
2022/07/07 01:27:19;;;;;;;8.02;5.30;;;;;;;;;;5271327;28;20030;-85
2022/07/07 01:29:51;;;;;;;8.70;4.95;;;;;;;;;;5279786;28;20044;-84
2022/07/07 01:32:23;;;;;;;5.80;4.50;;;;;;;;;;5277479;28;20489;-84
2022/07/07 01:34:55;;;;;;;7.18;4.85;;;;;;;;;;5281297;28;20473;-84
2022/07/07 01:37:26;;;;;;;6.60;5.38;;;;;;;;;;5265718;28;20039;-84
2022/07/07 01:39:58;;;;;;;5.57;4.83;;;;;;;;;;5280878;28;20563;-84
2022/07/07 01:42:29;;;;;;;4.85;4.38;;;;;;;;;;5274051;28;20028;-84
2022/07/07 01:45:00;;;;;;;7.83;4.73;;;;;;;;;;5281900;28;20105;-84
2022/07/07 01:47:31;;;;;;;6.90;5.28;;;;;;;;;;5285170;28;20263;-84
2022/07/07 01:50:03;;;;;;;6.88;4.78;;;;;;;;;;5281943;28;20120;-84
2022/07/07 01:52:36;;;;;;;8.00;4.97;;;;;;;;;;5284278;28;20038;-83
2022/07/07 01:55:07;;;;;;;8.18;5.35;;;;;;;;;;5285328;28;20111;-83
2022/07/07 01:57:39;;;;;;;5.03;4.53;;;;;;;;;;5279199;28;20032;-83
2022/07/07 02:00:11;;;;;;;6.70;4.70;;;;;;;;;;5263849;28;20457;-84
2022/07/07 02:02:42;;;;;;;8.73;5.93;;;;;;;;;;5262075;28;20263;-84
2022/07/07 02:05:14;;;;;;;6.35;4.75;;;;;;;;;;5279768;28;20470;-83
2022/07/07 02:07:47;;;;;;;4.77;4.23;;;;;;;;;;5279083;28;20025;-84
2022/07/07 02:11:12;;;;;;;6.65;4.85;;;;;;;;;;5279672;28;20024;-83
2022/07/07 02:13:09;;;;;;;6.03;4.20;;;;;;;;;;5280264;28;20115;-82
2022/07/07 02:15:41;;;;;;;7.22;4.55;;;;;;;;;;5280934;28;20124;-82
2022/07/07 02:18:12;;;;;;;7.15;4.75;;;;;;;;;;5262234;28;20107;-82
2022/07/07 02:20:43;;;;;;;10.23;4.47;;;;;;;;;;5262481;28;20111;-82
2022/07/07 02:23:14;;;;;;;7.43;4.20;;;;;;;;;;5278208;28;20037;-84
2022/07/07 02:25:46;;;;;;;6.05;3.63;;;;;;;;;;5281492;28;20099;-84
2022/07/07 02:28:19;;;;;;;6.40;3.73;;;;;;;;;;5281366;28;20386;-84
2022/07/07 02:30:50;;;;;;;6.68;3.75;;;;;;;;;;5276699;28;20288;-83
2022/07/07 02:33:22;;;;;;;6.57;3.55;;;;;;;;;;5273729;28;20029;-83
2022/07/07 02:35:54;;;;;;;7.28;3.90;;;;;;;;;;5281871;28;20405;-84
2022/07/07 02:38:25;;;;;;;6.72;4.10;;;;;;;;;;5262054;28;20025;-83
2022/07/07 02:40:56;;;;;;;5.18;3.33;;;;;;;;;;5282686;28;20048;-84
2022/07/07 02:43:28;;;;;;;5.63;3.40;;;;;;;;;;5280353;28;20029;-84
2022/07/07 02:45:59;;;;;;;5.97;3.45;;;;;;;;;;5285867;28;20295;-83
2022/07/07 02:48:30;;;;;;;6.50;3.00;;;;;;;;;;5286810;28;20423;-84
2022/07/07 02:51:02;;;;;;;5.97;3.58;;;;;;;;;;5278470;28;20106;-84
2022/07/07 02:53:34;;;;;;;6.23;2.80;;;;;;;;;;5287051;28;20129;-84
2022/07/07 02:56:05;;;;;;;6.50;3.08;;;;;;;;;;5283227;28;20152;-83
2022/07/07 02:58:36;;;;;;;7.63;2.90;;;;;;;;;;5286210;28;20355;-83
2022/07/07 03:01:07;;;;;;;4.37;3.10;;;;;;;;;;5285415;28;20088;-84
2022/07/07 03:03:38;;;;;;;4.97;3.20;;;;;;;;;;5280024;28;20278;-84
2022/07/07 03:06:09;;;;;;;7.53;3.38;;;;;;;;;;5285464;28;20043;-84
2022/07/07 03:08:41;;;;;;;6.83;3.30;;;;;;;;;;5280560;28;20021;-85
2022/07/07 03:11:12;;;;;;;4.47;3.30;;;;;;;;;;5273313;28;20031;-84
2022/07/07 03:13:43;;;;;;;7.18;3.22;;;;;;;;;;5283289;28;20063;-84
2022/07/07 03:16:14;;;;;;;6.53;4.20;;;;;;;;;;5290837;28;20036;-84
2022/07/07 03:18:45;;;;;;;6.75;3.30;;;;;;;;;;5284770;28;20048;-82
2022/07/07 03:21:17;;;;;;;5.87;2.87;;;;;;;;;;5303421;28;20097;-87
2022/07/07 03:23:48;;;;;;;5.47;2.50;;;;;;;;;;5304611;28;20310;-86
2022/07/07 03:26:19;;;;;;;4.28;2.40;;;;;;;;;;5305576;28;20284;-87
2022/07/07 03:28:50;;;;;;;2.53;1.90;;;;;;;;;;5295415;28;20025;-86
2022/07/07 03:31:21;;;;;;;6.40;1.85;;;;;;;;;;5278137;28;20073;-85
2022/07/07 03:33:53;;;;;;;3.10;1.63;;;;;;;;;;5275168;28;20026;-85
2022/07/07 03:36:24;;;;;;;3.20;1.98;;;;;;;;;;5260969;28;20116;-85
2022/07/07 03:38:56;;;;;;;2.80;1.63;;;;;;;;;;5279992;28;20033;-85
2022/07/07 03:41:27;;;;;;;3.60;2.00;;;;;;;;;;5285697;28;20260;-87
2022/07/07 03:43:58;;;;;;;2.78;2.05;;;;;;;;;;5282061;28;20029;-84
2022/07/07 03:46:29;;;;;;;3.20;2.60;;;;;;;;;;5284777;28;20037;-86
2022/07/07 03:49:01;;;;;;;3.00;2.67;;;;;;;;;;5276824;28;20744;-86
2022/07/07 03:51:32;;;;;;;4.28;2.78;;;;;;;;;;5277582;28;20495;-86
2022/07/07 03:54:04;;;;;;;3.50;3.00;;;;;;;;;;5261570;28;20161;-87
2022/07/07 03:56:37;;;;;;;4.25;3.17;;;;;;;;;;5284258;28;20084;-88
2022/07/07 03:59:11;;;;;;;5.20;3.33;;;;;;;;;;5264164;28;20120;-87
2022/07/07 04:01:45;;;;;;;4.38;3.20;;;;;;;;;;5275227;28;20108;-87
2022/07/07 04:04:17;;;;;;;3.75;3.45;;;;;;;;;;5265430;28;20086;-87
2022/07/07 04:06:55;;;;;;;5.43;3.70;;;;;;;;;;5280456;28;20055;-88
2022/07/07 04:09:26;;;;;;;4.20;3.60;;;;;;;;;;5260458;28;20025;-87
2022/07/07 04:11:58;;;;;;;5.70;3.90;;;;;;;;;;5261902;28;20099;-86
2022/07/07 04:14:29;;;;;;;4.68;4.15;;;;;;;;;;5266816;28;20181;-88
2022/07/07 04:17:04;;;;;;;5.45;4.65;;;;;;;;;;5261965;28;20036;-89
2022/07/07 04:19:36;;;;;;;7.85;5.03;;;;;;;;;;5262601;28;20036;-89
2022/07/07 04:22:08;;;;;;;5.95;5.10;;;;;;;;;;5277745;28;20035;-88
2022/07/07 04:24:44;;;;;;;5.03;4.63;;;;;;;;;;5260423;28;21654;-88
2022/07/07 04:27:19;;;;;;;5.43;4.90;;;;;;;;;;5274034;28;20076;-88
2022/07/07 04:29:56;;;;;;;7.88;4.53;;;;;;;;;;5276083;28;20131;-88
2022/07/07 04:51:26;;;;;;;4.45;3.22;;;;;;;;;;4339801;22;20057;-86
2022/07/07 04:54:03;;;;;;;5.30;3.08;;;;;;;;;;5276225;28;20713;-87
2022/07/07 04:56:35;;;;;;;5.70;2.60;;;;;;;;;;5257097;28;20036;-85
2022/07/07 05:02:40;;;;;;;;;;;;;;;;;;;;;
2022/07/07 05:05:15;;;;;;;2.40;1.38;;;;;;;;;;5234845;28;39884;-85
2022/07/07 05:07:54;;;;;;;6.45;1.38;;;;;;;;;;5253235;28;20041;-86
2022/07/07 05:10:35;;;;;;;4.78;1.52;;;;;;;;;;5274783;28;20048;-87
2022/07/07 05:13:15;;;;;;;3.33;1.30;;;;;;;;;;5275182;28;20059;-86
2022/07/07 05:16:03;;;;;;;4.95;1.73;;;;;;;;;;5262586;28;20120;-86
2022/07/07 05:18:45;;;;;;;6.13;1.65;;;;;;;;;;5277208;28;20036;-86
2022/07/07 05:21:27;;;;;;;4.50;1.73;;;;;;;;;;5277758;28;20064;-87
2022/07/07 05:24:00;;;;;;;5.43;1.75;;;;;;;;;;5266451;28;20152;-86
2022/07/07 05:26:32;;;;;;;8.48;2.05;;;;;;;;;;5302646;28;20044;-82
2022/07/07 05:29:03;;;;;;;5.38;1.70;;;;;;;;;;5319666;28;20150;-82
2022/07/07 05:31:34;;;;;;;4.53;2.22;;;;;;;;;;5305014;28;20502;-83
2022/07/07 05:34:08;;;;;;;6.70;1.70;;;;;;;;;;5301208;28;20078;-82
2022/07/07 05:36:40;;;;;;;4.05;1.40;;;;;;;;;;5319252;28;20283;-82
2022/07/07 05:39:13;;;;;;;6.90;1.63;;;;;;;;;;5320575;28;20035;-82
2022/07/07 05:41:44;;;;;;;4.65;1.70;;;;;;;;;;5299974;28;20145;-82
2022/07/07 05:44:15;;;;;;;3.13;1.20;;;;;;;;;;5318819;28;20440;-82
2022/07/07 05:46:46;;;;;;;2.95;1.40;;;;;;;;;;5299135;28;20333;-82
2022/07/07 05:49:17;;;;;;;6.03;1.70;;;;;;;;;;5299402;28;20054;-82
2022/07/07 05:51:49;;;;;;;3.20;1.57;;;;;;;;;;5301265;28;20303;-82
2022/07/07 05:54:20;;;;;;;4.30;1.43;;;;;;;;;;5312803;28;20289;-83
2022/07/07 05:56:51;;;;;;;3.20;1.30;;;;;;;;;;5319170;28;20296;-83
2022/07/07 05:59:23;;;;;;;5.95;1.40;;;;;;;;;;5319983;28;20039;-83
2022/07/07 06:01:54;;;;;;;3.67;1.30;;;;;;;;;;5327785;28;20103;-83
2022/07/07 06:04:26;;;;;;;6.13;1.75;;;;;;;;;;5326413;28;20035;-83
2022/07/07 06:06:57;;;;;;;7.30;1.45;;;;;;;;;;5324409;28;20542;-83
2022/07/07 06:09:28;;;;;;;4.70;1.10;;;;;;;;;;5321305;28;20028;-82
2022/07/07 06:12:00;;;;;;;7.95;1.77;;;;;;;;;;5299760;28;20266;-83
2022/07/07 06:14:31;;;;;;;8.65;1.83;;;;;;;;;;5308338;28;20009;-83
2022/07/07 06:17:02;;;;;;;10.07;1.67;;;;;;;;;;5326793;28;20051;-83
2022/07/07 06:19:33;;;;;;;2.90;1.15;;;;;;;;;;5346297;27;20290;-83
2022/07/07 06:22:05;;;;;;;4.57;1.40;;;;;;;;;;5343771;27;20092;-83
2022/07/07 06:24:36;;;;;;;11.23;1.97;;;;;;;;;;5346390;27;20023;-83
2022/07/07 06:27:07;;;;;;;16.70;2.45;;;;;;;;;;5342027;28;20028;-83
2022/07/07 06:29:39;;;;;;;6.18;1.80;;;;;;;;;;5327836;28;20124;-83
2022/07/07 06:32:16;;;;;;;9.43;2.13;;;;;;;;;;5326989;28;20490;-92
2022/07/07 06:34:50;;;;;;;9.57;1.75;;;;;;;;;;5320322;28;20106;-91
2022/07/07 06:37:24;;;;;;;9.45;2.45;;;;;;;;;;5333247;28;20054;-85
2022/07/07 06:39:55;;;;;;;7.63;1.85;;;;;;;;;;5315994;28;20020;-84
2022/07/07 06:42:27;;;;;;;11.63;1.80;;;;;;;;;;5305767;28;20115;-85
2022/07/07 06:44:58;;;;;;;10.52;1.88;;;;;;;;;;5308118;28;20646;-83
2022/07/07 06:47:29;;;;;;;8.73;1.92;;;;;;;;;;5326631;28;20024;-84
2022/07/07 06:50:01;;;;;;;13.40;2.70;;;;;;;;;;5304764;28;20044;-83
2022/07/07 06:52:59;;;;;;;;;;;;;;;;;;;;;
2022/07/07 06:55:36;;;;;;;8.60;2.38;;;;;;;;;;5291228;22;42202;-85
2022/07/07 06:58:08;;;;;;;4.60;1.23;;;;;;;;;;5315644;28;20052;-88
2022/07/07 07:00:40;;;;;;;8.32;1.70;;;;;;;;;;5311943;28;20048;-88
2022/07/07 07:03:11;;;;;;;9.60;2.40;;;;;;;;;;5313030;28;20047;-87
2022/07/07 07:05:49;;;;;;;3.67;1.33;;;;;;;;;;5329326;28;20040;-87
2022/07/07 07:08:31;;;;;;;7.35;1.40;;;;;;;;;;5333132;28;20020;-87
2022/07/07 07:11:02;;;;;;;4.25;1.75;;;;;;;;;;5296398;28;20033;-88
2022/07/07 07:13:33;;;;;;;4.93;1.38;;;;;;;;;;5312158;28;20043;-90
2022/07/07 07:16:05;;;;;;;5.93;1.80;;;;;;;;;;5309261;28;20020;-88
2022/07/07 07:18:41;;;;;;;8.23;1.58;;;;;;;;;;5311422;28;21187;-89
2022/07/07 07:38:39;;;;;;;;;;;;;;;;;;;;;
2022/07/07 07:41:32;;;;;;;4.57;1.42;;;;;;;;;;5221634;28;41156;-89
2022/07/07 07:47:18;;;;;;;7.03;1.50;;;;;;;;;;5285513;28;20052;-89
2022/07/07 07:50:30;;;;;;;6.97;1.77;;;;;;;;;;5265759;28;20051;-88
2022/07/07 07:56:50;;;;;;;;;;;;;;;;;;;;;
2022/07/07 07:59:48;;;;;;;8.32;3.15;;;;;;;;;;5164628;28;20056;-88
2022/07/07 08:02:47;;;;;;;;;;;;;;;;;;;;;
2022/07/07 08:05:48;;;;;;;;;;;;;;;;;;;;;
2022/07/07 08:11:44;;;;;;;3.20;0.98;;;;;;;;;;5174399;28;20023;-88
2022/07/07 08:14:37;;;;;;;5.75;1.00;;;;;;;;;;5164780;28;20040;-88
2022/07/07 08:17:23;;;;;;;;;;;;;;;;;;;;;
2022/07/07 08:20:27;;;;;;;6.25;1.40;;;;;;;;;;5263169;28;39872;-88
2022/07/07 08:23:15;;;;;;;4.55;1.45;;;;;;;;;;5264148;28;20498;-88
2022/07/07 08:26:22;;;;;;;2.55;1.10;;;;;;;;;;5291972;28;20044;-88
2022/07/07 08:32:23;;;;;;;5.30;1.00;;;;;;;;;;5314017;28;20425;-88
2022/07/07 08:42:04;;;;;;;5.15;1.33;;;;;;;;;;5217757;28;20038;-87
2022/07/07 08:48:34;;;;;;;;;;;;;;;;;;;;;
2022/07/07 08:57:55;;;;;;;;;;;;;;;;;;;;;
2022/07/07 09:01:01;;;;;;;;;;;;;;;;;;;;;
2022/07/07 09:16:26;;;;;;;10.63;1.55;;;;;;;;;;5232101;28;20041;-86
2022/07/07 09:25:36;;;;;;;;;;;;;;;;;;;;;
2022/07/07 09:44:12;;;;;;;7.47;1.10;;;;;;;;;;5149475;28;20413;-86
2022/07/07 09:46:55;;;;;;;3.20;1.13;;;;;;;;;;5172187;28;20043;-88
2022/07/07 10:00:47;;;;;;;;;;;;;;;;;;;;;
2022/07/07 10:02:58;;;;;;;7.88;1.08;;;;;;;;;;5155246;28;20506;-87
2022/07/07 10:06:09;;;;;;;;;;;;;;;;;;;;;
2022/07/07 10:12:10;;;;;;;3.85;1.58;;;;;;;;;;5315796;28;20520;-87
2022/07/07 10:15:12;;;;;;;4.03;1.02;;;;;;;;;;5308829;28;20031;-87
2022/07/07 10:21:37;;;;;;;;;;;;;;;;;;;;;
2022/07/07 10:30:50;;;;;;;2.90;1.02;;;;;;;;;;5262357;28;20032;-87
2022/07/07 10:36:58;;;;;;;5.68;1.10;;;;;;;;;;5243316;28;20071;-88
2022/07/07 10:43:36;;;;;;;;;;;;;;;;;;;;;
2022/07/07 10:49:46;;;;;;;2.63;0.80;;;;;;;;;;5243030;28;20054;-87
2022/07/07 10:56:09;;;;;;;;;;;;;;;;;;;;;
2022/07/07 10:59:20;;;;;;;3.20;0.82;;;;;;;;;;5236458;28;40318;-89
2022/07/07 11:05:47;;;;;;;3.65;1.00;;;;;;;;;;5139601;28;20048;-86
2022/07/07 11:18:30;;;;;;;6.18;1.40;;;;;;;;;;5101873;29;20028;-88
2022/07/07 11:21:15;;;;;;;4.50;1.20;;;;;;;;;;5136601;28;20055;-88
2022/07/07 11:24:26;;;;;;;6.75;1.63;;;;;;;;;;5179105;28;20038;-88
2022/07/07 11:27:29;;;;;;;5.65;1.70;;;;;;;;;;5142232;28;20048;-87
2022/07/07 11:30:30;;;;;;;7.45;1.60;;;;;;;;;;5154436;28;20049;-88
2022/07/07 11:36:32;;;;;;;3.78;1.55;;;;;;;;;;5200291;28;20023;-87
2022/07/07 11:39:18;;;;;;;6.63;1.73;;;;;;;;;;5230882;28;20045;-88
2022/07/07 11:42:43;;;;;;;6.68;1.60;;;;;;;;;;5283155;28;20037;-88
2022/07/07 11:46:14;;;;;;;5.70;1.50;;;;;;;;;;5286686;28;20052;-87
2022/07/07 11:59:13;;;;;;;4.53;1.63;;;;;;;;;;5253229;28;20032;-88
2022/07/07 12:02:08;;;;;;;8.15;1.85;;;;;;;;;;5177838;28;20054;-88
2022/07/07 12:05:01;;;;;;;;;;;;;;;;;;;;;
2022/07/07 12:15:07;;;;;;;6.90;1.73;;;;;;;;;;5266235;28;20048;-87
2022/07/07 12:24:11;;;;;;;5.65;1.30;;;;;;;;;;5264515;28;20022;-88
2022/07/07 12:40:02;;;;;;;5.97;1.20;;;;;;;;;;5288242;28;20397;-86
2022/07/07 12:46:03;;;;;;;3.65;0.90;;;;;;;;;;5275068;28;20368;-87
2022/07/07 12:49:21;;;;;;;2.47;0.60;;;;;;;;;;5261283;28;20029;-88
2022/07/07 12:52:12;;;;;;;3.47;1.10;;;;;;;;;;5225369;28;20034;-88
2022/07/07 12:54:43;;;;;;;2.47;1.15;;;;;;;;;;5245198;28;20133;-88
2022/07/07 12:57:34;;;;;;;3.65;1.05;;;;;;;;;;5245486;28;20073;-88
2022/07/07 13:03:54;;;;;;;1.77;0.80;;;;;;;;;;5254839;28;20038;-88
2022/07/07 13:07:03;;;;;;;3.00;0.90;;;;;;;;;;5217639;28;20042;-88
2022/07/07 13:20:25;;;;;;;1.52;0.70;;;;;;;;;;5135192;28;20512;-88
2022/07/07 13:29:51;;;;;;;5.78;1.38;;;;;;;;;;5134098;28;20492;-88
2022/07/07 13:39:26;;;;;;;;;;;;;;;;;;;;;
2022/07/07 13:45:57;;;;;;;7.20;1.95;;;;;;;;;;5203321;28;20464;-88
2022/07/07 13:48:49;;;;;;;7.63;2.00;;;;;;;;;;5166324;28;20043;-88
2022/07/07 13:55:34;;;;;;;9.10;2.20;;;;;;;;;;5178574;28;20035;-87
2022/07/07 14:05:18;;;;;;;4.93;1.52;;;;;;;;;;5181726;28;20036;-88
2022/07/07 14:21:40;;;;;;;;;;;;;;;;;;;;;
2022/07/07 14:25:08;;;;;;;8.53;2.03;;;;;;;;;;5241224;28;41732;-88
2022/07/07 14:47:00;;;;;;;12.88;2.35;;;;;;;;;;5096683;29;20057;-87
2022/07/07 14:50:09;;;;;;;11.52;2.78;;;;;;;;;;5096236;29;20037;-87
2022/07/07 14:56:27;;;;;;;10.45;2.13;;;;;;;;;;5128113;28;20169;-88
2022/07/07 14:59:35;;;;;;;7.85;1.98;;;;;;;;;;5151550;28;20047;-87
2022/07/07 15:02:32;;;;;;;6.28;1.80;;;;;;;;;;5068170;29;20084;-88
2022/07/07 15:08:39;;;;;;;;;;;;;;;;;;5066641;28;20056;-87
2022/07/07 15:14:56;;;;;;;;;;;;;;;;;;;;;
2022/07/07 15:17:44;;;;;;;;;;;;;;;;;;;;;
2022/07/07 15:24:22;;;;;;;9.07;2.20;;;;;;;;;;5061589;29;20074;-88
2022/07/07 15:47:06;;;;;;;6.88;2.17;;;;;;;;;;5078406;29;20046;-86
2022/07/07 16:00:26;;;;;;;;;;;;;;;;;;;;;
2022/07/07 16:03:12;;;;;;;6.78;2.08;;;;;;;;;;5099769;29;40404;-87
2022/07/07 16:05:52;;;;;;;11.52;2.15;;;;;;;;;;5113455;29;20494;-87
2022/07/07 16:08:32;;;;;;;11.30;1.98;;;;;;;;;;5122973;29;20493;-87
2022/07/07 16:11:23;;;;;;;10.18;2.05;;;;;;;;;;5141562;28;20047;-87
2022/07/07 16:14:30;;;;;;;8.07;2.00;;;;;;;;;;5214877;28;20041;-87
2022/07/07 16:27:53;;;;;;;10.88;2.20;;;;;;;;;;5243781;28;20044;-87
2022/07/07 16:34:03;;;;;;;12.30;2.35;;;;;;;;;;5237886;28;20113;-87
2022/07/07 16:46:47;;;;;;;10.18;2.75;;;;;;;;;;5168123;28;20063;-87
2022/07/07 16:59:44;;;;;;;15.50;3.00;;;;;;;;;;5150955;28;20297;-88
2022/07/07 17:02:38;;;;;;;9.53;2.20;;;;;;;;;;5187211;28;20034;-87
2022/07/07 17:05:39;;;;;;;13.10;2.50;;;;;;;;;;5196792;28;20145;-87
2022/07/07 17:11:44;;;;;;;10.70;2.27;;;;;;;;;;5188790;28;20047;-87
2022/07/07 17:14:45;;;;;;;20.27;2.78;;;;;;;;;;5211014;28;20057;-87
2022/07/07 17:24:16;;;;;;;14.05;2.55;;;;;;;;;;5201800;28;20031;-87
2022/07/07 17:27:03;;;;;;;13.05;2.78;;;;;;;;;;5182260;28;20106;-87
2022/07/07 17:33:16;;;;;;;14.23;3.20;;;;;;;;;;5171777;28;20105;-88
2022/07/07 17:36:25;;;;;;;13.98;2.90;;;;;;;;;;5178517;28;20073;-87
2022/07/07 17:42:50;;;;;;;13.63;3.58;;;;;;;;;;5210115;28;20053;-88
2022/07/07 17:45:55;;;;;;;13.50;3.13;;;;;;;;;;5261151;28;20106;-87
2022/07/07 17:55:39;;;;;;;13.88;2.90;;;;;;;;;;5193342;28;20089;-87
2022/07/07 17:58:36;;;;;;;11.48;2.28;;;;;;;;;;5145972;28;20110;-87
2022/07/07 18:11:01;;;;;;;9.48;2.33;;;;;;;;;;5169681;28;20035;-87
2022/07/07 18:20:32;;;;;;;;;;;;;;;;;;;;;
2022/07/07 18:23:24;;;;;;;12.70;2.78;;;;;;;;;;5199398;28;42644;-87
2022/07/07 18:26:03;;;;;;;10.10;2.67;;;;;;;;;;5230094;28;20346;-87
2022/07/07 18:31:53;;;;;;;18.05;2.78;;;;;;;;;;5267454;28;20029;-88
2022/07/07 18:41:13;;;;;;;10.75;3.20;;;;;;;;;;5298627;28;20093;-87
2022/07/07 18:57:13;;;;;;;13.88;3.08;;;;;;;;;;5313195;28;20140;-87
2022/07/07 19:03:46;;;;;;;;;;;;;;;;;;;;;
2022/07/07 19:09:34;;;;;;;12.65;2.92;;;;;;;;;;5223323;28;20042;-88
2022/07/07 19:19:30;;;;;;;;;;;;;;;;;;;;;
2022/07/07 19:35:37;;;;;;;;;;;;;;;;;;;;;
2022/07/07 19:38:27;;;;;;;9.18;2.03;;;;;;;;;;5276093;28;20132;-89
2022/07/07 19:41:05;;;;;;;16.20;3.15;;;;;;;;;;5260531;28;20194;-89
2022/07/07 19:43:45;;;;;;;12.68;2.83;;;;;;;;;;5262180;28;20557;-89
2022/07/07 19:46:27;;;;;;;;;;;;;;;;;;;;;
2022/07/07 19:49:34;;;;;;;12.27;2.28;;;;;;;;;;5277549;28;41810;-88
2022/07/07 19:52:59;;;;;;;;;;;;;;;;;;;;;
2022/07/07 19:56:00;;;;;;;11.82;2.38;;;;;;;;;;5217328;28;20034;-89
2022/07/07 19:59:08;;;;;;;7.75;1.73;;;;;;;;;;5218691;28;20173;-89
2022/07/07 20:02:07;;;;;;;11.00;2.10;;;;;;;;;;5200264;28;20053;-89
2022/07/07 20:05:18;;;;;;;15.98;2.47;;;;;;;;;;5223087;28;20162;-89
2022/07/07 20:11:25;;;;;;;12.32;2.20;;;;;;;;;;5142370;28;20032;-89
2022/07/07 20:17:49;;;;;;;8.63;2.28;;;;;;;;;;5146747;28;20397;-89
2022/07/07 20:21:15;;;;;;;13.23;2.67;;;;;;;;;;5116756;28;20068;-89
2022/07/07 20:27:17;;;;;;;12.95;2.30;;;;;;;;;;5119761;29;20043;-89
2022/07/07 20:36:23;;;;;;;9.43;2.10;;;;;;;;;;5078422;29;20122;-90
2022/07/07 20:39:03;;;;;;;10.63;2.30;;;;;;;;;;5078912;29;20041;-89
2022/07/07 20:45:29;;;;;;;;;;;;;;;;;;;;;
2022/07/07 20:48:06;;;;;;;8.45;2.03;;;;;;;;;;5132441;28;40408;-90
2022/07/07 20:57:57;;;;;;;13.82;2.55;;;;;;;;;;5159316;28;20798;-90
2022/07/07 21:04:24;;;;;;;10.98;2.10;;;;;;;;;;5175615;28;20109;-89
2022/07/07 21:16:49;;;;;;;10.43;2.72;;;;;;;;;;5114352;29;20045;-89
2022/07/07 21:30:11;;;;;;;13.27;3.03;;;;;;;;;;5158770;28;20516;-90
2022/07/07 21:33:49;;;;;;;;;;;;;;;;;;;;;
2022/07/07 21:49:26;;;;;;;11.88;3.00;;;;;;;;;;5164480;28;20035;-90
2022/07/07 21:58:54;;;;;;;10.07;2.03;;;;;;;;;;5195375;28;20047;-90
2022/07/07 22:15:07;;;;;;;;;;;;;;;;;;;;;
2022/07/07 22:18:20;;;;;;;16.83;2.90;;;;;;;;;;5263950;28;40458;-91
2022/07/07 22:21:02;;;;;;;15.30;2.30;;;;;;;;;;5240797;28;20132;-90
2022/07/07 22:24:12;;;;;;;;;;;;;;;;;;;;;
2022/07/07 22:39:55;;;;;;;11.75;2.97;;;;;;;;;;5328921;22;20053;-90
2022/07/07 22:46:00;;;;;;;10.75;2.10;;;;;;;;;;5300674;28;20407;-90
2022/07/07 22:49:00;;;;;;;14.65;2.50;;;;;;;;;;5320776;28;20042;-90
2022/07/07 22:51:40;;;;;;;9.90;2.63;;;;;;;;;;5254543;28;20552;-90
2022/07/07 23:00:59;;;;;;;15.73;2.90;;;;;;;;;;5250760;28;20555;-90
2022/07/07 23:03:49;;;;;;;8.40;2.47;;;;;;;;;;5241549;28;20030;-90
2022/07/07 23:20:08;;;;;;;9.60;1.83;;;;;;;;;;5129490;29;20036;-90
2022/07/07 23:39:10;;;;;;;12.23;2.75;;;;;;;;;;5211054;28;20046;-90
2022/07/07 23:48:29;;;;;;;;;;;;;;;;;;;;;
